sensor_id;sensor_type;location;lat;lon;timestamp;P1;durP1;ratioP1;P2;durP2;ratioP2
78148;SDS011;67396;42.664;23.382;2023-08-06T00:00:12;4.28;;;3.00;;
78148;SDS011;67396;42.664;23.382;2023-08-06T00:02:38;6.07;;;2.80;;
78148;SDS011;67396;42.664;23.382;2023-08-06T00:05:03;8.40;;;3.15;;
78148;SDS011;67396;42.664;23.382;2023-08-06T00:07:29;4.30;;;2.55;;
78148;SDS011;67396;42.664;23.382;2023-08-06T00:09:54;9.18;;;4.97;;
78148;SDS011;67396;42.664;23.382;2023-08-06T00:12:20;18.33;;;9.00;;
78148;SDS011;67396;42.664;23.382;2023-08-06T00:14:45;8.93;;;4.65;;
78148;SDS011;67396;42.664;23.382;2023-08-06T00:17:10;13.48;;;7.68;;
78148;SDS011;67396;42.664;23.382;2023-08-06T00:19:36;14.82;;;8.20;;
78148;SDS011;67396;42.664;23.382;2023-08-06T00:22:01;9.00;;;4.00;;
78148;SDS011;67396;42.664;23.382;2023-08-06T00:24:27;5.95;;;3.75;;
78148;SDS011;67396;42.664;23.382;2023-08-06T00:26:52;11.70;;;4.35;;
78148;SDS011;67396;42.664;23.382;2023-08-06T00:29:18;7.47;;;4.18;;
78148;SDS011;67396;42.664;23.382;2023-08-06T00:31:43;7.70;;;3.90;;
78148;SDS011;67396;42.664;23.382;2023-08-06T00:34:09;5.85;;;3.45;;
78148;SDS011;67396;42.664;23.382;2023-08-06T00:36:34;6.63;;;3.40;;
78148;SDS011;67396;42.664;23.382;2023-08-06T00:38:59;9.15;;;3.60;;
78148;SDS011;67396;42.664;23.382;2023-08-06T00:41:25;6.68;;;3.28;;
78148;SDS011;67396;42.664;23.382;2023-08-06T00:43:50;7.22;;;3.25;;
78148;SDS011;67396;42.664;23.382;2023-08-06T00:46:16;7.82;;;3.67;;
78148;SDS011;67396;42.664;23.382;2023-08-06T00:48:41;7.30;;;3.58;;
78148;SDS011;67396;42.664;23.382;2023-08-06T00:51:08;6.38;;;3.83;;
78148;SDS011;67396;42.664;23.382;2023-08-06T00:53:37;4.40;;;3.05;;
78148;SDS011;67396;42.664;23.382;2023-08-06T00:56:03;8.13;;;5.30;;
78148;SDS011;67396;42.664;23.382;2023-08-06T00:58:28;17.50;;;9.35;;
78148;SDS011;67396;42.664;23.382;2023-08-06T01:00:54;14.23;;;7.50;;
78148;SDS011;67396;42.664;23.382;2023-08-06T01:03:19;24.67;;;12.93;;
78148;SDS011;67396;42.664;23.382;2023-08-06T01:05:45;12.52;;;6.70;;
78148;SDS011;67396;42.664;23.382;2023-08-06T01:13:48;7.97;;;4.28;;
78148;SDS011;67396;42.664;23.382;2023-08-06T01:16:20;9.05;;;4.70;;
78148;SDS011;67396;42.664;23.382;2023-08-06T01:18:49;9.02;;;5.40;;
78148;SDS011;67396;42.664;23.382;2023-08-06T01:21:15;6.50;;;4.20;;
78148;SDS011;67396;42.664;23.382;2023-08-06T01:23:42;9.07;;;5.00;;
78148;SDS011;67396;42.664;23.382;2023-08-06T01:26:16;10.70;;;6.55;;
78148;SDS011;67396;42.664;23.382;2023-08-06T01:31:43;24.08;;;12.20;;
78148;SDS011;67396;42.664;23.382;2023-08-06T01:34:24;22.95;;;12.82;;
78148;SDS011;67396;42.664;23.382;2023-08-06T01:36:52;9.05;;;5.15;;
78148;SDS011;67396;42.664;23.382;2023-08-06T01:39:18;13.38;;;6.40;;
78148;SDS011;67396;42.664;23.382;2023-08-06T01:41:46;12.20;;;5.65;;
78148;SDS011;67396;42.664;23.382;2023-08-06T01:44:12;16.55;;;6.35;;
78148;SDS011;67396;42.664;23.382;2023-08-06T01:46:37;11.00;;;6.25;;
78148;SDS011;67396;42.664;23.382;2023-08-06T01:49:03;12.05;;;5.50;;
78148;SDS011;67396;42.664;23.382;2023-08-06T01:51:28;8.07;;;4.82;;
78148;SDS011;67396;42.664;23.382;2023-08-06T01:53:53;7.68;;;4.70;;
78148;SDS011;67396;42.664;23.382;2023-08-06T01:56:19;9.73;;;5.13;;
78148;SDS011;67396;42.664;23.382;2023-08-06T01:58:44;7.32;;;4.00;;
78148;SDS011;67396;42.664;23.382;2023-08-06T02:01:10;8.63;;;5.25;;
78148;SDS011;67396;42.664;23.382;2023-08-06T02:03:35;11.13;;;5.93;;
78148;SDS011;67396;42.664;23.382;2023-08-06T02:06:01;12.43;;;5.63;;
78148;SDS011;67396;42.664;23.382;2023-08-06T02:08:27;11.68;;;5.55;;
78148;SDS011;67396;42.664;23.382;2023-08-06T02:10:52;16.48;;;8.35;;
78148;SDS011;67396;42.664;23.382;2023-08-06T02:13:18;15.90;;;9.23;;
78148;SDS011;67396;42.664;23.382;2023-08-06T02:15:45;14.25;;;8.77;;
78148;SDS011;67396;42.664;23.382;2023-08-06T02:18:14;15.00;;;6.65;;
78148;SDS011;67396;42.664;23.382;2023-08-06T02:20:40;15.77;;;8.30;;
78148;SDS011;67396;42.664;23.382;2023-08-06T02:23:06;14.60;;;7.78;;
78148;SDS011;67396;42.664;23.382;2023-08-06T02:25:31;17.55;;;7.90;;
78148;SDS011;67396;42.664;23.382;2023-08-06T02:27:56;13.35;;;6.70;;
78148;SDS011;67396;42.664;23.382;2023-08-06T02:30:22;10.70;;;6.13;;
78148;SDS011;67396;42.664;23.382;2023-08-06T02:32:47;10.50;;;4.95;;
78148;SDS011;67396;42.664;23.382;2023-08-06T02:35:13;12.40;;;5.07;;
78148;SDS011;67396;42.664;23.382;2023-08-06T02:37:38;10.93;;;5.22;;
78148;SDS011;67396;42.664;23.382;2023-08-06T02:40:04;10.10;;;4.63;;
78148;SDS011;67396;42.664;23.382;2023-08-06T02:42:29;6.43;;;3.83;;
78148;SDS011;67396;42.664;23.382;2023-08-06T02:44:55;8.13;;;3.80;;
78148;SDS011;67396;42.664;23.382;2023-08-06T02:47:20;7.30;;;4.10;;
78148;SDS011;67396;42.664;23.382;2023-08-06T02:49:46;6.18;;;4.25;;
78148;SDS011;67396;42.664;23.382;2023-08-06T02:52:11;9.07;;;4.18;;
78148;SDS011;67396;42.664;23.382;2023-08-06T02:54:37;10.20;;;4.70;;
78148;SDS011;67396;42.664;23.382;2023-08-06T02:57:02;9.40;;;4.38;;
78148;SDS011;67396;42.664;23.382;2023-08-06T02:59:28;7.55;;;4.45;;
78148;SDS011;67396;42.664;23.382;2023-08-06T03:01:54;6.45;;;4.15;;
78148;SDS011;67396;42.664;23.382;2023-08-06T03:04:19;5.82;;;4.03;;
78148;SDS011;67396;42.664;23.382;2023-08-06T03:06:44;7.38;;;4.25;;
78148;SDS011;67396;42.664;23.382;2023-08-06T03:09:10;8.98;;;4.55;;
78148;SDS011;67396;42.664;23.382;2023-08-06T03:11:35;5.80;;;3.65;;
78148;SDS011;67396;42.664;23.382;2023-08-06T03:14:01;11.15;;;4.57;;
78148;SDS011;67396;42.664;23.382;2023-08-06T03:16:26;10.05;;;4.50;;
78148;SDS011;67396;42.664;23.382;2023-08-06T03:18:52;9.65;;;4.00;;
78148;SDS011;67396;42.664;23.382;2023-08-06T03:21:17;12.07;;;4.32;;
78148;SDS011;67396;42.664;23.382;2023-08-06T03:23:43;26.40;;;5.15;;
78148;SDS011;67396;42.664;23.382;2023-08-06T03:26:08;5.38;;;3.00;;
78148;SDS011;67396;42.664;23.382;2023-08-06T03:28:33;17.08;;;5.40;;
78148;SDS011;67396;42.664;23.382;2023-08-06T03:31:02;8.18;;;4.00;;
78148;SDS011;67396;42.664;23.382;2023-08-06T03:33:28;7.15;;;3.42;;
78148;SDS011;67396;42.664;23.382;2023-08-06T03:35:54;7.43;;;3.33;;
78148;SDS011;67396;42.664;23.382;2023-08-06T03:38:20;5.50;;;3.33;;
78148;SDS011;67396;42.664;23.382;2023-08-06T03:40:46;6.78;;;3.58;;
78148;SDS011;67396;42.664;23.382;2023-08-06T03:43:12;8.48;;;3.45;;
78148;SDS011;67396;42.664;23.382;2023-08-06T03:45:37;6.80;;;4.18;;
78148;SDS011;67396;42.664;23.382;2023-08-06T03:48:04;8.30;;;3.88;;
78148;SDS011;67396;42.664;23.382;2023-08-06T03:50:29;9.88;;;4.75;;
78148;SDS011;67396;42.664;23.382;2023-08-06T03:52:58;5.57;;;3.80;;
78148;SDS011;67396;42.664;23.382;2023-08-06T03:55:23;8.23;;;3.83;;
78148;SDS011;67396;42.664;23.382;2023-08-06T03:57:48;7.82;;;4.13;;
78148;SDS011;67396;42.664;23.382;2023-08-06T04:00:14;9.90;;;4.63;;
78148;SDS011;67396;42.664;23.382;2023-08-06T04:02:39;9.15;;;4.60;;
78148;SDS011;67396;42.664;23.382;2023-08-06T04:05:05;6.10;;;3.10;;
78148;SDS011;67396;42.664;23.382;2023-08-06T04:07:30;7.78;;;3.35;;
78148;SDS011;67396;42.664;23.382;2023-08-06T04:09:59;8.52;;;4.40;;
78148;SDS011;67396;42.664;23.382;2023-08-06T04:12:29;6.72;;;4.25;;
78148;SDS011;67396;42.664;23.382;2023-08-06T04:14:55;5.47;;;3.40;;
78148;SDS011;67396;42.664;23.382;2023-08-06T04:17:22;7.43;;;4.10;;
78148;SDS011;67396;42.664;23.382;2023-08-06T04:19:49;44.28;;;10.40;;
78148;SDS011;67396;42.664;23.382;2023-08-06T04:22:18;9.50;;;4.22;;
78148;SDS011;67396;42.664;23.382;2023-08-06T04:24:44;7.68;;;5.68;;
78148;SDS011;67396;42.664;23.382;2023-08-06T04:27:10;8.02;;;3.83;;
78148;SDS011;67396;42.664;23.382;2023-08-06T04:29:36;10.68;;;4.30;;
78148;SDS011;67396;42.664;23.382;2023-08-06T04:32:06;14.50;;;4.30;;
78148;SDS011;67396;42.664;23.382;2023-08-06T04:34:33;11.88;;;4.40;;
78148;SDS011;67396;42.664;23.382;2023-08-06T04:36:59;6.28;;;3.63;;
78148;SDS011;67396;42.664;23.382;2023-08-06T04:39:25;10.98;;;4.53;;
78148;SDS011;67396;42.664;23.382;2023-08-06T04:41:50;7.95;;;4.72;;
78148;SDS011;67396;42.664;23.382;2023-08-06T04:44:16;8.60;;;4.28;;
78148;SDS011;67396;42.664;23.382;2023-08-06T04:46:41;6.32;;;4.30;;
78148;SDS011;67396;42.664;23.382;2023-08-06T04:49:07;7.85;;;4.60;;
78148;SDS011;67396;42.664;23.382;2023-08-06T04:51:32;6.18;;;4.30;;
78148;SDS011;67396;42.664;23.382;2023-08-06T04:53:58;6.25;;;4.18;;
78148;SDS011;67396;42.664;23.382;2023-08-06T04:56:23;6.93;;;3.95;;
78148;SDS011;67396;42.664;23.382;2023-08-06T04:58:49;7.10;;;4.28;;
78148;SDS011;67396;42.664;23.382;2023-08-06T05:01:15;7.10;;;4.38;;
78148;SDS011;67396;42.664;23.382;2023-08-06T05:03:40;13.23;;;4.78;;
78148;SDS011;67396;42.664;23.382;2023-08-06T05:06:05;9.35;;;5.07;;
78148;SDS011;67396;42.664;23.382;2023-08-06T05:08:31;9.32;;;4.82;;
78148;SDS011;67396;42.664;23.382;2023-08-06T05:10:56;8.68;;;5.22;;
78148;SDS011;67396;42.664;23.382;2023-08-06T05:13:22;11.38;;;4.82;;
78148;SDS011;67396;42.664;23.382;2023-08-06T05:15:47;13.82;;;5.40;;
78148;SDS011;67396;42.664;23.382;2023-08-06T05:18:13;7.55;;;4.63;;
78148;SDS011;67396;42.664;23.382;2023-08-06T05:20:40;10.63;;;6.30;;
78148;SDS011;67396;42.664;23.382;2023-08-06T05:23:06;7.93;;;5.15;;
78148;SDS011;67396;42.664;23.382;2023-08-06T05:25:31;10.07;;;4.80;;
78148;SDS011;67396;42.664;23.382;2023-08-06T05:27:56;8.52;;;4.63;;
78148;SDS011;67396;42.664;23.382;2023-08-06T05:30:22;7.22;;;4.63;;
78148;SDS011;67396;42.664;23.382;2023-08-06T05:32:47;8.38;;;4.90;;
78148;SDS011;67396;42.664;23.382;2023-08-06T05:35:13;7.50;;;5.03;;
78148;SDS011;67396;42.664;23.382;2023-08-06T05:37:38;12.48;;;5.70;;
78148;SDS011;67396;42.664;23.382;2023-08-06T05:40:04;12.05;;;6.13;;
78148;SDS011;67396;42.664;23.382;2023-08-06T05:42:29;10.15;;;6.60;;
78148;SDS011;67396;42.664;23.382;2023-08-06T05:44:55;12.27;;;7.35;;
78148;SDS011;67396;42.664;23.382;2023-08-06T05:47:21;14.75;;;7.97;;
78148;SDS011;67396;42.664;23.382;2023-08-06T05:49:46;13.05;;;8.32;;
78148;SDS011;67396;42.664;23.382;2023-08-06T05:52:11;17.98;;;8.68;;
78148;SDS011;67396;42.664;23.382;2023-08-06T05:54:37;14.93;;;8.18;;
78148;SDS011;67396;42.664;23.382;2023-08-06T05:57:02;16.83;;;8.18;;
78148;SDS011;67396;42.664;23.382;2023-08-06T05:59:28;11.88;;;7.28;;
78148;SDS011;67396;42.664;23.382;2023-08-06T06:01:53;12.00;;;6.97;;
78148;SDS011;67396;42.664;23.382;2023-08-06T06:04:20;15.25;;;7.13;;
78148;SDS011;67396;42.664;23.382;2023-08-06T06:06:45;10.50;;;6.72;;
78148;SDS011;67396;42.664;23.382;2023-08-06T06:09:10;9.00;;;5.07;;
78148;SDS011;67396;42.664;23.382;2023-08-06T06:11:36;6.70;;;5.03;;
78148;SDS011;67396;42.664;23.382;2023-08-06T06:14:01;6.50;;;3.67;;
78148;SDS011;67396;42.664;23.382;2023-08-06T06:16:27;6.53;;;4.03;;
78148;SDS011;67396;42.664;23.382;2023-08-06T06:18:52;4.22;;;2.78;;
78148;SDS011;67396;42.664;23.382;2023-08-06T06:21:19;5.57;;;3.05;;
78148;SDS011;67396;42.664;23.382;2023-08-06T06:23:45;4.30;;;2.80;;
78148;SDS011;67396;42.664;23.382;2023-08-06T06:26:11;3.55;;;2.63;;
78148;SDS011;67396;42.664;23.382;2023-08-06T06:28:36;4.47;;;3.08;;
78148;SDS011;67396;42.664;23.382;2023-08-06T06:31:01;5.90;;;2.67;;
78148;SDS011;67396;42.664;23.382;2023-08-06T06:33:28;5.63;;;3.08;;
78148;SDS011;67396;42.664;23.382;2023-08-06T06:35:54;2.92;;;2.20;;
78148;SDS011;67396;42.664;23.382;2023-08-06T06:38:19;9.20;;;3.22;;
78148;SDS011;67396;42.664;23.382;2023-08-06T06:40:53;4.35;;;2.95;;
78148;SDS011;67396;42.664;23.382;2023-08-06T06:43:19;6.05;;;2.80;;
78148;SDS011;67396;42.664;23.382;2023-08-06T06:45:45;4.85;;;2.85;;
78148;SDS011;67396;42.664;23.382;2023-08-06T06:48:10;3.88;;;2.83;;
78148;SDS011;67396;42.664;23.382;2023-08-06T06:50:36;6.47;;;3.10;;
78148;SDS011;67396;42.664;23.382;2023-08-06T06:53:01;4.75;;;3.10;;
78148;SDS011;67396;42.664;23.382;2023-08-06T06:55:27;5.00;;;3.05;;
78148;SDS011;67396;42.664;23.382;2023-08-06T06:57:52;10.23;;;3.58;;
78148;SDS011;67396;42.664;23.382;2023-08-06T07:00:18;4.38;;;2.80;;
78148;SDS011;67396;42.664;23.382;2023-08-06T07:02:43;4.47;;;3.15;;
78148;SDS011;67396;42.664;23.382;2023-08-06T07:05:09;6.10;;;3.60;;
78148;SDS011;67396;42.664;23.382;2023-08-06T07:07:34;5.13;;;3.45;;
78148;SDS011;67396;42.664;23.382;2023-08-06T07:10:00;5.05;;;2.63;;
78148;SDS011;67396;42.664;23.382;2023-08-06T07:12:26;3.65;;;2.60;;
78148;SDS011;67396;42.664;23.382;2023-08-06T07:14:52;4.13;;;2.65;;
78148;SDS011;67396;42.664;23.382;2023-08-06T07:17:17;5.32;;;2.88;;
78148;SDS011;67396;42.664;23.382;2023-08-06T07:19:43;10.63;;;3.38;;
78148;SDS011;67396;42.664;23.382;2023-08-06T07:22:08;3.35;;;2.60;;
78148;SDS011;67396;42.664;23.382;2023-08-06T07:24:33;6.15;;;3.03;;
78148;SDS011;67396;42.664;23.382;2023-08-06T07:26:59;5.72;;;3.25;;
78148;SDS011;67396;42.664;23.382;2023-08-06T07:29:24;6.32;;;3.58;;
78148;SDS011;67396;42.664;23.382;2023-08-06T07:31:50;4.63;;;3.13;;
78148;SDS011;67396;42.664;23.382;2023-08-06T07:34:15;4.32;;;3.10;;
78148;SDS011;67396;42.664;23.382;2023-08-06T07:36:43;6.53;;;3.65;;
78148;SDS011;67396;42.664;23.382;2023-08-06T07:39:09;5.15;;;3.70;;
78148;SDS011;67396;42.664;23.382;2023-08-06T07:41:35;9.30;;;5.53;;
78148;SDS011;67396;42.664;23.382;2023-08-06T07:44:00;3.42;;;2.75;;
78148;SDS011;67396;42.664;23.382;2023-08-06T07:46:26;9.77;;;3.85;;
78148;SDS011;67396;42.664;23.382;2023-08-06T07:48:51;4.53;;;2.85;;
78148;SDS011;67396;42.664;23.382;2023-08-06T07:51:17;9.70;;;4.22;;
78148;SDS011;67396;42.664;23.382;2023-08-06T07:53:42;6.75;;;3.53;;
78148;SDS011;67396;42.664;23.382;2023-08-06T07:56:08;6.68;;;3.60;;
78148;SDS011;67396;42.664;23.382;2023-08-06T07:58:33;5.10;;;3.25;;
78148;SDS011;67396;42.664;23.382;2023-08-06T08:00:59;4.88;;;2.83;;
78148;SDS011;67396;42.664;23.382;2023-08-06T08:03:24;3.22;;;2.33;;
78148;SDS011;67396;42.664;23.382;2023-08-06T08:05:50;5.10;;;3.17;;
78148;SDS011;67396;42.664;23.382;2023-08-06T08:08:23;5.25;;;3.10;;
78148;SDS011;67396;42.664;23.382;2023-08-06T08:10:49;5.75;;;3.28;;
78148;SDS011;67396;42.664;23.382;2023-08-06T08:13:14;5.20;;;3.25;;
78148;SDS011;67396;42.664;23.382;2023-08-06T08:15:40;5.05;;;3.45;;
78148;SDS011;67396;42.664;23.382;2023-08-06T08:18:05;7.25;;;2.72;;
78148;SDS011;67396;42.664;23.382;2023-08-06T08:20:31;4.85;;;3.17;;
78148;SDS011;67396;42.664;23.382;2023-08-06T08:22:58;6.18;;;3.20;;
78148;SDS011;67396;42.664;23.382;2023-08-06T08:25:25;4.53;;;3.30;;
78148;SDS011;67396;42.664;23.382;2023-08-06T08:27:51;5.18;;;3.22;;
78148;SDS011;67396;42.664;23.382;2023-08-06T08:30:17;7.20;;;4.30;;
78148;SDS011;67396;42.664;23.382;2023-08-06T08:32:42;9.98;;;3.80;;
78148;SDS011;67396;42.664;23.382;2023-08-06T08:35:08;5.75;;;3.58;;
78148;SDS011;67396;42.664;23.382;2023-08-06T08:37:34;4.78;;;3.25;;
78148;SDS011;67396;42.664;23.382;2023-08-06T08:39:59;7.50;;;3.58;;
78148;SDS011;67396;42.664;23.382;2023-08-06T08:42:28;6.38;;;3.10;;
78148;SDS011;67396;42.664;23.382;2023-08-06T08:44:57;5.50;;;3.35;;
78148;SDS011;67396;42.664;23.382;2023-08-06T08:47:22;5.57;;;3.30;;
78148;SDS011;67396;42.664;23.382;2023-08-06T08:49:49;10.00;;;2.97;;
78148;SDS011;67396;42.664;23.382;2023-08-06T08:52:19;5.93;;;3.75;;
78148;SDS011;67396;42.664;23.382;2023-08-06T08:54:49;4.97;;;3.88;;
78148;SDS011;67396;42.664;23.382;2023-08-06T08:57:17;9.07;;;3.92;;
78148;SDS011;67396;42.664;23.382;2023-08-06T08:59:43;6.07;;;3.50;;
78148;SDS011;67396;42.664;23.382;2023-08-06T09:02:09;4.40;;;3.63;;
78148;SDS011;67396;42.664;23.382;2023-08-06T09:04:41;6.90;;;3.20;;
78148;SDS011;67396;42.664;23.382;2023-08-06T09:07:09;7.70;;;3.45;;
78148;SDS011;67396;42.664;23.382;2023-08-06T09:09:38;9.15;;;3.97;;
78148;SDS011;67396;42.664;23.382;2023-08-06T09:12:37;5.18;;;3.45;;
78148;SDS011;67396;42.664;23.382;2023-08-06T09:15:03;4.63;;;3.50;;
78148;SDS011;67396;42.664;23.382;2023-08-06T09:17:52;5.68;;;3.80;;
78148;SDS011;67396;42.664;23.382;2023-08-06T09:20:43;5.38;;;3.35;;
78148;SDS011;67396;42.664;23.382;2023-08-06T09:23:14;7.13;;;3.40;;
78148;SDS011;67396;42.664;23.382;2023-08-06T09:25:42;4.78;;;3.88;;
78148;SDS011;67396;42.664;23.382;2023-08-06T09:28:14;5.43;;;3.30;;
78148;SDS011;67396;42.664;23.382;2023-08-06T09:30:39;9.63;;;4.93;;
78148;SDS011;67396;42.664;23.382;2023-08-06T09:33:08;6.93;;;5.13;;
78148;SDS011;67396;42.664;23.382;2023-08-06T09:35:40;6.70;;;4.68;;
78148;SDS011;67396;42.664;23.382;2023-08-06T09:38:08;10.02;;;4.13;;
78148;SDS011;67396;42.664;23.382;2023-08-06T09:40:35;4.90;;;3.28;;
78148;SDS011;67396;42.664;23.382;2023-08-06T09:43:01;4.93;;;3.65;;
78148;SDS011;67396;42.664;23.382;2023-08-06T09:45:36;3.72;;;3.00;;
78148;SDS011;67396;42.664;23.382;2023-08-06T09:48:03;5.57;;;3.33;;
78148;SDS011;67396;42.664;23.382;2023-08-06T09:50:30;5.28;;;2.70;;
78148;SDS011;67396;42.664;23.382;2023-08-06T09:52:58;4.88;;;2.83;;
78148;SDS011;67396;42.664;23.382;2023-08-06T09:55:25;4.43;;;2.92;;
78148;SDS011;67396;42.664;23.382;2023-08-06T09:57:53;4.57;;;2.83;;
78148;SDS011;67396;42.664;23.382;2023-08-06T10:00:19;5.05;;;3.47;;
78148;SDS011;67396;42.664;23.382;2023-08-06T10:02:46;8.32;;;2.92;;
78148;SDS011;67396;42.664;23.382;2023-08-06T10:05:12;5.68;;;3.15;;
78148;SDS011;67396;42.664;23.382;2023-08-06T10:07:37;6.40;;;2.78;;
78148;SDS011;67396;42.664;23.382;2023-08-06T10:10:05;3.55;;;2.08;;
78148;SDS011;67396;42.664;23.382;2023-08-06T10:12:34;6.05;;;2.92;;
78148;SDS011;67396;42.664;23.382;2023-08-06T10:15:08;4.22;;;2.72;;
78148;SDS011;67396;42.664;23.382;2023-08-06T10:17:37;4.72;;;2.60;;
78148;SDS011;67396;42.664;23.382;2023-08-06T10:20:05;4.18;;;2.58;;
78148;SDS011;67396;42.664;23.382;2023-08-06T10:22:32;3.85;;;2.78;;
78148;SDS011;67396;42.664;23.382;2023-08-06T10:25:00;3.17;;;2.38;;
78148;SDS011;67396;42.664;23.382;2023-08-06T10:30:41;3.95;;;2.42;;
78148;SDS011;67396;42.664;23.382;2023-08-06T10:32:56;5.38;;;2.90;;
78148;SDS011;67396;42.664;23.382;2023-08-06T10:38:09;6.82;;;2.80;;
78148;SDS011;67396;42.664;23.382;2023-08-06T10:41:08;3.63;;;2.70;;
78148;SDS011;67396;42.664;23.382;2023-08-06T10:43:32;6.00;;;3.10;;
78148;SDS011;67396;42.664;23.382;2023-08-06T10:45:59;6.93;;;2.38;;
78148;SDS011;67396;42.664;23.382;2023-08-06T10:51:01;5.28;;;3.53;;
78148;SDS011;67396;42.664;23.382;2023-08-06T10:53:28;6.63;;;3.53;;
78148;SDS011;67396;42.664;23.382;2023-08-06T10:55:54;3.72;;;2.80;;
78148;SDS011;67396;42.664;23.382;2023-08-06T10:58:19;5.55;;;2.83;;
78148;SDS011;67396;42.664;23.382;2023-08-06T11:00:45;4.57;;;2.50;;
78148;SDS011;67396;42.664;23.382;2023-08-06T11:03:10;3.13;;;2.53;;
78148;SDS011;67396;42.664;23.382;2023-08-06T11:05:36;5.70;;;2.67;;
78148;SDS011;67396;42.664;23.382;2023-08-06T11:08:02;7.40;;;3.00;;
78148;SDS011;67396;42.664;23.382;2023-08-06T11:10:27;6.35;;;3.15;;
78148;SDS011;67396;42.664;23.382;2023-08-06T11:12:54;7.60;;;3.10;;
78148;SDS011;67396;42.664;23.382;2023-08-06T11:15:22;4.93;;;2.97;;
78148;SDS011;67396;42.664;23.382;2023-08-06T11:17:48;6.05;;;2.92;;
78148;SDS011;67396;42.664;23.382;2023-08-06T11:20:13;5.65;;;3.30;;
78148;SDS011;67396;42.664;23.382;2023-08-06T11:22:39;5.95;;;3.00;;
78148;SDS011;67396;42.664;23.382;2023-08-06T11:25:06;5.68;;;3.50;;
78148;SDS011;67396;42.664;23.382;2023-08-06T11:27:35;8.63;;;3.67;;
78148;SDS011;67396;42.664;23.382;2023-08-06T11:30:04;8.88;;;4.05;;
78148;SDS011;67396;42.664;23.382;2023-08-06T11:32:45;6.75;;;3.40;;
78148;SDS011;67396;42.664;23.382;2023-08-06T11:35:12;5.70;;;2.90;;
78148;SDS011;67396;42.664;23.382;2023-08-06T11:37:39;8.38;;;3.00;;
78148;SDS011;67396;42.664;23.382;2023-08-06T11:42:36;5.25;;;3.90;;
78148;SDS011;67396;42.664;23.382;2023-08-06T11:45:02;5.63;;;3.55;;
78148;SDS011;67396;42.664;23.382;2023-08-06T11:47:29;10.63;;;3.75;;
78148;SDS011;67396;42.664;23.382;2023-08-06T11:49:55;6.35;;;4.15;;
78148;SDS011;67396;42.664;23.382;2023-08-06T11:55:00;7.07;;;3.95;;
78148;SDS011;67396;42.664;23.382;2023-08-06T11:57:38;7.07;;;3.90;;
78148;SDS011;67396;42.664;23.382;2023-08-06T12:00:05;5.78;;;3.92;;
78148;SDS011;67396;42.664;23.382;2023-08-06T12:02:46;12.25;;;4.60;;
78148;SDS011;67396;42.664;23.382;2023-08-06T12:07:52;6.32;;;3.33;;
78148;SDS011;67396;42.664;23.382;2023-08-06T12:10:21;4.90;;;3.53;;
78148;SDS011;67396;42.664;23.382;2023-08-06T12:12:47;6.25;;;4.07;;
78148;SDS011;67396;42.664;23.382;2023-08-06T12:15:24;6.18;;;4.25;;
78148;SDS011;67396;42.664;23.382;2023-08-06T12:17:53;5.22;;;4.18;;
78148;SDS011;67396;42.664;23.382;2023-08-06T12:20:28;6.40;;;4.80;;
78148;SDS011;67396;42.664;23.382;2023-08-06T12:22:54;6.28;;;5.00;;
78148;SDS011;67396;42.664;23.382;2023-08-06T12:25:20;5.97;;;5.05;;
78148;SDS011;67396;42.664;23.382;2023-08-06T12:27:49;7.60;;;5.25;;
78148;SDS011;67396;42.664;23.382;2023-08-06T12:30:21;7.30;;;4.90;;
78148;SDS011;67396;42.664;23.382;2023-08-06T12:32:50;6.63;;;5.30;;
78148;SDS011;67396;42.664;23.382;2023-08-06T12:35:18;8.00;;;4.85;;
78148;SDS011;67396;42.664;23.382;2023-08-06T12:37:51;9.43;;;6.13;;
78148;SDS011;67396;42.664;23.382;2023-08-06T12:40:25;6.78;;;5.32;;
78148;SDS011;67396;42.664;23.382;2023-08-06T12:43:00;11.27;;;5.50;;
78148;SDS011;67396;42.664;23.382;2023-08-06T12:45:26;8.82;;;5.72;;
78148;SDS011;67396;42.664;23.382;2023-08-06T12:47:51;8.00;;;5.57;;
78148;SDS011;67396;42.664;23.382;2023-08-06T12:50:17;10.77;;;5.82;;
78148;SDS011;67396;42.664;23.382;2023-08-06T12:52:42;8.02;;;5.72;;
78148;SDS011;67396;42.664;23.382;2023-08-06T12:55:08;10.35;;;5.55;;
78148;SDS011;67396;42.664;23.382;2023-08-06T12:57:33;9.05;;;5.93;;
78148;SDS011;67396;42.664;23.382;2023-08-06T13:00:00;8.63;;;5.72;;
78148;SDS011;67396;42.664;23.382;2023-08-06T13:02:25;8.15;;;5.50;;
78148;SDS011;67396;42.664;23.382;2023-08-06T13:04:55;7.50;;;5.38;;
78148;SDS011;67396;42.664;23.382;2023-08-06T13:07:21;9.43;;;5.43;;
78148;SDS011;67396;42.664;23.382;2023-08-06T13:09:49;7.55;;;5.45;;
78148;SDS011;67396;42.664;23.382;2023-08-06T13:12:15;9.05;;;5.85;;
78148;SDS011;67396;42.664;23.382;2023-08-06T13:14:40;9.30;;;5.75;;
78148;SDS011;67396;42.664;23.382;2023-08-06T13:17:06;9.65;;;5.82;;
78148;SDS011;67396;42.664;23.382;2023-08-06T13:19:32;8.85;;;6.07;;
78148;SDS011;67396;42.664;23.382;2023-08-06T13:21:59;9.02;;;5.78;;
78148;SDS011;67396;42.664;23.382;2023-08-06T13:24:27;7.95;;;5.38;;
78148;SDS011;67396;42.664;23.382;2023-08-06T13:26:53;7.82;;;5.47;;
78148;SDS011;67396;42.664;23.382;2023-08-06T13:29:19;7.53;;;5.53;;
78148;SDS011;67396;42.664;23.382;2023-08-06T13:31:45;7.93;;;5.43;;
78148;SDS011;67396;42.664;23.382;2023-08-06T13:34:12;6.30;;;5.15;;
78148;SDS011;67396;42.664;23.382;2023-08-06T13:36:37;11.73;;;5.93;;
78148;SDS011;67396;42.664;23.382;2023-08-06T13:39:03;8.30;;;5.85;;
78148;SDS011;67396;42.664;23.382;2023-08-06T13:41:30;6.97;;;6.07;;
78148;SDS011;67396;42.664;23.382;2023-08-06T13:43:55;8.15;;;5.80;;
78148;SDS011;67396;42.664;23.382;2023-08-06T13:46:23;15.98;;;10.65;;
78148;SDS011;67396;42.664;23.382;2023-08-06T13:48:49;12.07;;;8.50;;
78148;SDS011;67396;42.664;23.382;2023-08-06T13:51:16;8.40;;;6.18;;
78148;SDS011;67396;42.664;23.382;2023-08-06T13:53:41;12.35;;;6.32;;
78148;SDS011;67396;42.664;23.382;2023-08-06T13:56:08;8.20;;;5.68;;
78148;SDS011;67396;42.664;23.382;2023-08-06T13:58:35;10.38;;;5.30;;
78148;SDS011;67396;42.664;23.382;2023-08-06T14:01:01;10.57;;;5.20;;
78148;SDS011;67396;42.664;23.382;2023-08-06T14:03:32;9.75;;;5.07;;
78148;SDS011;67396;42.664;23.382;2023-08-06T14:05:58;7.88;;;5.63;;
78148;SDS011;67396;42.664;23.382;2023-08-06T14:08:24;7.35;;;5.03;;
78148;SDS011;67396;42.664;23.382;2023-08-06T14:10:50;7.60;;;4.85;;
78148;SDS011;67396;42.664;23.382;2023-08-06T14:13:18;6.55;;;4.90;;
78148;SDS011;67396;42.664;23.382;2023-08-06T14:15:44;13.65;;;6.10;;
78148;SDS011;67396;42.664;23.382;2023-08-06T14:18:12;10.27;;;5.80;;
78148;SDS011;67396;42.664;23.382;2023-08-06T14:20:41;10.88;;;5.55;;
78148;SDS011;67396;42.664;23.382;2023-08-06T14:23:07;7.15;;;5.22;;
78148;SDS011;67396;42.664;23.382;2023-08-06T14:25:33;7.40;;;5.22;;
78148;SDS011;67396;42.664;23.382;2023-08-06T14:27:58;8.93;;;5.65;;
78148;SDS011;67396;42.664;23.382;2023-08-06T14:30:24;9.07;;;5.78;;
78148;SDS011;67396;42.664;23.382;2023-08-06T14:32:50;176.63;;;13.98;;
78148;SDS011;67396;42.664;23.382;2023-08-06T14:35:15;23.33;;;13.73;;
78148;SDS011;67396;42.664;23.382;2023-08-06T14:37:41;9.23;;;5.00;;
78148;SDS011;67396;42.664;23.382;2023-08-06T14:40:06;8.48;;;4.30;;
78148;SDS011;67396;42.664;23.382;2023-08-06T14:42:32;6.28;;;5.15;;
78148;SDS011;67396;42.664;23.382;2023-08-06T14:44:58;7.80;;;4.80;;
78148;SDS011;67396;42.664;23.382;2023-08-06T14:47:23;9.15;;;5.70;;
78148;SDS011;67396;42.664;23.382;2023-08-06T14:49:51;7.90;;;4.90;;
78148;SDS011;67396;42.664;23.382;2023-08-06T14:52:16;8.05;;;4.90;;